Time;durP1;ratioP1;P1;durP2;ratioP2;P2;SDS_P1;SDS_P2;PMS_P1;PMS_P2;Temp;Humidity;BMP_temperature;BMP_pressure;BME280_temperature;BME280_humidity;BME280_pressure;Samples;Min_cycle;Max_cycle;Signal;HPM_P1;HPM_P2
2023/08/28 00:00:46;;;;;;;;;;;;;;;;;;5031422;28;19911;-70
2023/08/28 00:03:11;;;;;;;;;;;;;;;;;;5031087;28;19909;-70
2023/08/28 00:05:37;;;;;;;;;;;;;;;;;;5031027;28;19913;-70
2023/08/28 00:08:04;;;;;;;;;;;;;;;;;;5030567;28;19913;-71
2023/08/28 00:10:30;;;;;;;;;;;;;;;;;;5030791;28;19966;-71
2023/08/28 00:12:56;;;;;;;;;;;;;;;;;;5031100;28;20369;-71
2023/08/28 00:15:22;;;;;;;;;;;;;;;;;;5030789;28;19905;-71
2023/08/28 00:17:48;;;;;;;;;;;;;;;;;;5030116;28;19932;-71
2023/08/28 00:20:14;;;;;;;;;;;;;;;;;;5034190;28;19905;-71
2023/08/28 00:22:40;;;;;;;;;;;;;;;;;;5037405;28;20376;-70
2023/08/28 00:25:09;;;;;;;;;;;;;;;;;;5037391;28;19905;-70
2023/08/28 00:27:35;;;;;;;;;;;;;;;;;;5036609;28;20007;-71
2023/08/28 00:30:01;;;;;;;;;;;;;;;;;;5037515;28;20436;-71
2023/08/28 00:32:26;;;;;;;;;;;;;;;;;;5037197;28;20369;-70
2023/08/28 00:34:52;;;;;;;;;;;;;;;;;;5037546;28;19971;-71
2023/08/28 00:37:18;;;;;;;;;;;;;;;;;;5036744;28;20103;-71
2023/08/28 00:39:44;;;;;;;;;;;;;;;;;;5037483;28;20365;-71
2023/08/28 00:42:10;;;;;;;;;;;;;;;;;;5037586;28;19905;-71
2023/08/28 00:44:36;;;;;;;;;;;;;;;;;;5040684;28;19904;-71
2023/08/28 00:47:05;;;;;;;;;;;;;;;;;;5031915;28;19954;-71
2023/08/28 00:49:31;;;;;;;;;;;;;;;;;;5036873;28;19913;-71
2023/08/28 00:51:57;;;;;;;;;;;;;;;;;;5037307;28;20050;-71
2023/08/28 00:54:23;;;;;;;;;;;;;;;;;;5037100;28;20384;-71
2023/08/28 00:56:49;;;;;;;;;;;;;;;;;;5037081;28;20408;-71
2023/08/28 00:59:15;;;;;;;;;;;;;;;;;;5036555;28;19951;-71
2023/08/28 01:01:40;;;;;;;;;;;;;;;;;;5037182;28;20284;-71
2023/08/28 01:04:06;;;;;;;;;;;;;;;;;;5037128;28;19951;-71
2023/08/28 01:06:32;;;;;;;;;;;;;;;;;;5036971;28;19912;-71
2023/08/28 01:08:58;;;;;;;;;;;;;;;;;;5036414;28;19909;-71
2023/08/28 01:11:24;;;;;;;;;;;;;;;;;;5045385;28;19912;-71
2023/08/28 01:13:50;;;;;;;;;;;;;;;;;;5036947;28;20349;-70
2023/08/28 01:16:16;;;;;;;;;;;;;;;;;;5036758;28;19909;-70
2023/08/28 01:18:42;;;;;;;;;;;;;;;;;;5036476;28;19909;-70
2023/08/28 01:21:08;;;;;;;;;;;;;;;;;;5036909;28;20292;-70
2023/08/28 01:23:34;;;;;;;;;;;;;;;;;;5036969;28;19905;-70
2023/08/28 01:26:00;;;;;;;;;;;;;;;;;;5036831;28;19905;-70
2023/08/28 01:28:26;;;;;;;;;;;;;;;;;;5036047;28;19913;-70
2023/08/28 01:30:53;;;;;;;;;;;;;;;;;;5018036;28;19971;-71
2023/08/28 01:33:19;;;;;;;;;;;;;;;;;;5032044;28;19913;-70
2023/08/28 01:35:45;;;;;;;;;;;;;;;;;;5038385;28;19912;-71
2023/08/28 01:38:11;;;;;;;;;;;;;;;;;;5018726;28;20288;-71
2023/08/28 01:40:37;;;;;;;;;;;;;;;;;;5033650;28;19959;-71
2023/08/28 01:43:03;;;;;;;;;;;;;;;;;;5033404;28;19904;-71
2023/08/28 01:45:29;;;;;;;;;;;;;;;;;;5015729;28;19909;-71
2023/08/28 01:47:55;;;;;;;;;;;;;;;;;;5032677;28;19912;-71
2023/08/28 01:50:21;;;;;;;;;;;;;;;;;;5033717;28;19905;-71
2023/08/28 01:52:46;;;;;;;;;;;;;;;;;;5033570;28;19905;-70
2023/08/28 01:55:12;;;;;;;;;;;;;;;;;;5034099;28;19949;-70
2023/08/28 01:57:38;;;;;;;;;;;;;;;;;;5032513;28;19974;-70
2023/08/28 02:00:04;;;;;;;;;;;;;;;;;;5034891;28;19909;-70
2023/08/28 02:02:30;;;;;;;;;;;;;;;;;;5036507;28;19971;-70
2023/08/28 02:04:56;;;;;;;;;;;;;;;;;;5036561;28;19913;-70
2023/08/28 02:07:22;;;;;;;;;;;;;;;;;;5035739;28;20341;-70
2023/08/28 02:09:48;;;;;;;;;;;;;;;;;;5035110;28;19992;-70
2023/08/28 02:12:14;;;;;;;;;;;;;;;;;;5030727;28;19909;-71
2023/08/28 02:14:40;;;;;;;;;;;;;;;;;;5033052;28;19905;-70
2023/08/28 02:17:06;;;;;;;;;;;;;;;;;;5032670;28;20424;-70
2023/08/28 02:19:31;;;;;;;;;;;;;;;;;;5032381;28;19913;-70
2023/08/28 02:21:57;;;;;;;;;;;;;;;;;;5032991;28;19905;-70
2023/08/28 02:24:24;;;;;;;;;;;;;;;;;;5032641;28;20246;-69
2023/08/28 02:26:50;;;;;;;;;;;;;;;;;;5032662;28;19999;-70
2023/08/28 02:29:16;;;;;;;;;;;;;;;;;;5032133;28;19928;-70
2023/08/28 02:31:42;;;;;;;;;;;;;;;;;;5032664;28;19952;-71
2023/08/28 02:34:08;;;;;;;;;;;;;;;;;;5014750;28;20336;-71
2023/08/28 02:36:34;;;;;;;;;;;;;;;;;;5032453;28;19909;-71
2023/08/28 02:39:00;;;;;;;;;;;;;;;;;;5031900;28;19905;-70
2023/08/28 02:41:26;;;;;;;;;;;;;;;;;;5032467;28;19912;-70
2023/08/28 02:43:51;;;;;;;;;;;;;;;;;;5032457;28;19920;-70
2023/08/28 02:46:17;;;;;;;;;;;;;;;;;;5032217;28;19905;-71
2023/08/28 02:48:43;;;;;;;;;;;;;;;;;;5031831;28;19908;-71
2023/08/28 02:51:09;;;;;;;;;;;;;;;;;;5030962;28;19955;-70
2023/08/28 02:53:35;;;;;;;;;;;;;;;;;;5032530;28;20376;-71
2023/08/28 02:56:01;;;;;;;;;;;;;;;;;;5032303;28;19915;-72
2023/08/28 02:58:27;;;;;;;;;;;;;;;;;;5031328;28;19936;-71
2023/08/28 03:00:53;;;;;;;;;;;;;;;;;;5032025;28;20339;-71
2023/08/28 03:03:25;;;;;;;;;;;;;;;;;;5031903;28;19959;-71
2023/08/28 03:05:51;;;;;;;;;;;;;;;;;;5028495;28;19909;-71
2023/08/28 03:08:16;;;;;;;;;;;;;;;;;;5031330;28;19959;-71
2023/08/28 03:10:42;;;;;;;;;;;;;;;;;;5031846;28;19909;-68
2023/08/28 03:13:08;;;;;;;;;;;;;;;;;;5031863;28;19976;-68
2023/08/28 03:15:34;;;;;;;;;;;;;;;;;;5031802;28;19905;-70
2023/08/28 03:18:00;;;;;;;;;;;;;;;;;;5031048;28;19972;-71
2023/08/28 03:20:26;;;;;;;;;;;;;;;;;;5031515;28;19916;-71
2023/08/28 03:22:52;;;;;;;;;;;;;;;;;;5031429;28;20260;-71
2023/08/28 03:25:18;;;;;;;;;;;;;;;;;;5031509;28;19909;-71
2023/08/28 03:27:44;;;;;;;;;;;;;;;;;;5030683;28;19905;-70
2023/08/28 03:30:09;;;;;;;;;;;;;;;;;;5031528;28;19994;-70
2023/08/28 03:32:35;;;;;;;;;;;;;;;;;;5031473;28;19919;-71
2023/08/28 03:35:01;;;;;;;;;;;;;;;;;;5031419;28;20396;-71
2023/08/28 03:37:27;;;;;;;;;;;;;;;;;;5030934;28;19916;-70
2023/08/28 03:39:53;;;;;;;;;;;;;;;;;;5013801;28;19905;-70
2023/08/28 03:42:19;;;;;;;;;;;;;;;;;;5031458;28;19909;-70
2023/08/28 03:44:45;;;;;;;;;;;;;;;;;;5031241;28;19913;-70
2023/08/28 03:47:11;;;;;;;;;;;;;;;;;;5031265;28;19905;-70
2023/08/28 03:49:37;;;;;;;;;;;;;;;;;;5023047;28;19913;-70
2023/08/28 03:52:02;;;;;;;;;;;;;;;;;;5039734;28;19905;-70
2023/08/28 03:54:28;;;;;;;;;;;;;;;;;;5030487;28;19916;-70
2023/08/28 03:56:54;;;;;;;;;;;;;;;;;;5031219;28;20345;-71
2023/08/28 03:59:21;;;;;;;;;;;;;;;;;;5012804;28;19944;-70
2023/08/28 04:01:48;;;;;;;;;;;;;;;;;;5031093;28;19987;-71
2023/08/28 04:04:13;;;;;;;;;;;;;;;;;;5031234;28;20415;-70
2023/08/28 04:06:39;;;;;;;;;;;;;;;;;;5031032;28;19932;-71
2023/08/28 04:09:05;;;;;;;;;;;;;;;;;;5030874;28;19905;-71
2023/08/28 04:11:31;;;;;;;;;;;;;;;;;;5031259;28;20327;-70
2023/08/28 04:13:58;;;;;;;;;;;;;;;;;;5030885;28;19905;-70
2023/08/28 04:16:23;;;;;;;;;;;;;;;;;;5038699;28;20384;-70
2023/08/28 04:18:49;;;;;;;;;;;;;;;;;;5030438;28;19916;-70
2023/08/28 04:21:15;;;;;;;;;;;;;;;;;;5030563;28;19912;-70
2023/08/28 04:23:41;;;;;;;;;;;;;;;;;;5030841;28;20379;-70
2023/08/28 04:26:07;;;;;;;;;;;;;;;;;;5030736;28;19905;-70
2023/08/28 04:28:33;;;;;;;;;;;;;;;;;;5029861;28;19916;-70
2023/08/28 04:30:59;;;;;;;;;;;;;;;;;;5030565;28;19905;-70
2023/08/28 04:33:25;;;;;;;;;;;;;;;;;;5030818;28;20007;-70
2023/08/28 04:35:51;;;;;;;;;;;;;;;;;;5028979;28;20463;-70
2023/08/28 04:38:17;;;;;;;;;;;;;;;;;;5031219;28;19951;-70
2023/08/28 04:40:43;;;;;;;;;;;;;;;;;;5032375;28;19952;-70
2023/08/28 04:43:09;;;;;;;;;;;;;;;;;;5031881;28;19909;-70
2023/08/28 04:45:34;;;;;;;;;;;;;;;;;;5029019;28;19914;-70
2023/08/28 04:48:00;;;;;;;;;;;;;;;;;;5022396;28;20028;-70
2023/08/28 04:50:26;;;;;;;;;;;;;;;;;;5022414;28;19909;-70
2023/08/28 04:52:52;;;;;;;;;;;;;;;;;;5010343;28;19959;-70
2023/08/28 04:55:18;;;;;;;;;;;;;;;;;;5013407;28;19909;-70
2023/08/28 04:57:44;;;;;;;;;;;;;;;;;;5030210;28;19909;-70
2023/08/28 05:00:10;;;;;;;;;;;;;;;;;;5028320;28;20279;-70
2023/08/28 05:02:36;;;;;;;;;;;;;;;;;;5017376;28;19919;-70
2023/08/28 05:05:02;;;;;;;;;;;;;;;;;;5027400;28;19917;-70
2023/08/28 05:07:28;;;;;;;;;;;;;;;;;;5020635;28;20396;-70
2023/08/28 05:09:54;;;;;;;;;;;;;;;;;;5019258;28;19936;-70
2023/08/28 05:12:20;;;;;;;;;;;;;;;;;;5014955;28;19909;-70
2023/08/28 05:14:46;;;;;;;;;;;;;;;;;;5017610;28;19980;-70
2023/08/28 05:17:12;;;;;;;;;;;;;;;;;;5013493;28;19909;-70
2023/08/28 05:19:38;;;;;;;;;;;;;;;;;;5031167;28;20396;-70
2023/08/28 05:22:04;;;;;;;;;;;;;;;;;;5031768;28;19905;-70
2023/08/28 05:24:30;;;;;;;;;;;;;;;;;;5032451;28;19952;-70
2023/08/28 05:26:56;;;;;;;;;;;;;;;;;;5023503;28;19947;-70
2023/08/28 05:29:22;;;;;;;;;;;;;;;;;;5031980;28;19905;-70
2023/08/28 05:31:48;;;;;;;;;;;;;;;;;;5032278;28;19908;-70
2023/08/28 05:34:13;;;;;;;;;;;;;;;;;;5041986;28;20038;-70
2023/08/28 05:36:39;;;;;;;;;;;;;;;;;;5046090;28;19917;-71
2023/08/28 05:39:05;;;;;;;;;;;;;;;;;;5015442;28;19912;-70
2023/08/28 05:41:31;;;;;;;;;;;;;;;;;;5035999;28;19912;-70
2023/08/28 05:43:57;;;;;;;;;;;;;;;;;;5039400;28;19956;-70
2023/08/28 05:46:23;;;;;;;;;;;;;;;;;;5043403;28;19905;-69
2023/08/28 05:48:49;;;;;;;;;;;;;;;;;;5032609;28;20387;-69
2023/08/28 05:51:15;;;;;;;;;;;;;;;;;;5041866;28;19916;-70
2023/08/28 05:53:41;;;;;;;;;;;;;;;;;;5033195;28;19912;-69
2023/08/28 05:56:06;;;;;;;;;;;;;;;;;;5041460;28;19916;-69
2023/08/28 05:58:32;;;;;;;;;;;;;;;;;;5031512;28;19913;-69
2023/08/28 06:00:58;;;;;;;;;;;;;;;;;;5033140;28;19913;-69
2023/08/28 06:03:24;;;;;;;;;;;;;;;;;;5032734;28;19909;-69
2023/08/28 06:05:50;;;;;;;;;;;;;;;;;;5033053;28;19912;-70
2023/08/28 06:08:16;;;;;;;;;;;;;;;;;;5032208;28;19905;-69
2023/08/28 06:10:42;;;;;;;;;;;;;;;;;;5031741;28;19905;-71
2023/08/28 06:13:08;;;;;;;;;;;;;;;;;;5046760;28;20007;-69
2023/08/28 06:15:34;;;;;;;;;;;;;;;;;;5041211;28;20067;-69
2023/08/28 06:18:00;;;;;;;;;;;;;;;;;;5030686;28;19909;-70
2023/08/28 06:20:26;;;;;;;;;;;;;;;;;;5031172;28;19916;-71
2023/08/28 06:22:52;;;;;;;;;;;;;;;;;;5031483;28;19909;-69
2023/08/28 06:25:18;;;;;;;;;;;;;;;;;;5031071;28;20012;-69
2023/08/28 06:27:44;;;;;;;;;;;;;;;;;;5031726;28;19905;-69
2023/08/28 06:30:10;;;;;;;;;;;;;;;;;;5032648;28;20098;-69
2023/08/28 06:32:36;;;;;;;;;;;;;;;;;;5032878;28;19905;-69
2023/08/28 06:35:02;;;;;;;;;;;;;;;;;;5032484;28;20314;-69
2023/08/28 06:37:27;;;;;;;;;;;;;;;;;;5031710;28;19916;-69
2023/08/28 06:39:53;;;;;;;;;;;;;;;;;;5032048;28;19927;-69
2023/08/28 06:42:19;;;;;;;;;;;;;;;;;;5032353;28;19905;-69
2023/08/28 06:44:45;;;;;;;;;;;;;;;;;;5032227;28;19916;-69
2023/08/28 06:47:13;;;;;;;;;;;;;;;;;;5032292;28;19992;-69
2023/08/28 06:49:38;;;;;;;;;;;;;;;;;;5032084;28;20555;-69
2023/08/28 06:52:04;;;;;;;;;;;;;;;;;;5031999;28;19934;-69
2023/08/28 06:54:32;;;;;;;;;;;;;;;;;;5031183;28;19905;-69
2023/08/28 06:56:58;;;;;;;;;;;;;;;;;;5031588;28;20387;-70
2023/08/28 06:59:24;;;;;;;;;;;;;;;;;;5032028;28;20003;-70
2023/08/28 07:01:50;;;;;;;;;;;;;;;;;;5032449;28;20357;-70
2023/08/28 07:04:16;;;;;;;;;;;;;;;;;;5032736;28;19924;-70
2023/08/28 07:06:42;;;;;;;;;;;;;;;;;;5032174;28;19938;-69
2023/08/28 07:09:08;;;;;;;;;;;;;;;;;;5032404;28;20574;-71
2023/08/28 07:11:34;;;;;;;;;;;;;;;;;;5032801;28;19908;-70
2023/08/28 07:13:59;;;;;;;;;;;;;;;;;;5034038;28;19905;-70
2023/08/28 07:16:25;;;;;;;;;;;;;;;;;;5033524;28;19909;-71
2023/08/28 07:18:51;;;;;;;;;;;;;;;;;;5033710;28;20007;-71
2023/08/28 07:21:17;;;;;;;;;;;;;;;;;;5033324;28;20403;-71
2023/08/28 07:23:44;;;;;;;;;;;;;;;;;;5014987;28;19905;-71
2023/08/28 07:26:10;;;;;;;;;;;;;;;;;;5032213;28;19909;-69
2023/08/28 07:28:36;;;;;;;;;;;;;;;;;;5031685;28;19905;-69
2023/08/28 07:31:03;;;;;;;;;;;;;;;;;;5031269;28;20344;-69
2023/08/28 07:33:29;;;;;;;;;;;;;;;;;;5031962;28;19985;-69
2023/08/28 07:35:55;;;;;;;;;;;;;;;;;;5031993;28;19909;-70
2023/08/28 07:38:21;;;;;;;;;;;;;;;;;;5031869;28;19905;-70
2023/08/28 07:40:47;;;;;;;;;;;;;;;;;;5031671;28;19948;-70
2023/08/28 07:43:13;;;;;;;;;;;;;;;;;;5031868;28;19912;-70
2023/08/28 07:45:39;;;;;;;;;;;;;;;;;;5032121;28;19905;-71
2023/08/28 07:48:05;;;;;;;;;;;;;;;;;;5031572;28;19905;-70
2023/08/28 07:50:31;;;;;;;;;;;;;;;;;;5030193;28;19909;-71
2023/08/28 07:52:59;;;;;;;;;;;;;;;;;;5026097;28;19931;-71
2023/08/28 07:55:25;;;;;;;;;;;;;;;;;;5022762;28;19909;-70
2023/08/28 07:57:51;;;;;;;;;;;;;;;;;;5029175;28;19913;-71
2023/08/28 08:00:20;;;;;;;;;;;;;;;;;;5026209;28;19960;-71
2023/08/28 08:02:46;;;;;;;;;;;;;;;;;;5021678;28;19953;-70
2023/08/28 08:05:12;;;;;;;;;;;;;;;;;;5027837;28;19999;-70
2023/08/28 08:07:39;;;;;;;;;;;;;;;;;;5036424;28;20384;-69
2023/08/28 08:10:05;;;;;;;;;;;;;;;;;;5027068;28;20365;-70
2023/08/28 08:12:31;;;;;;;;;;;;;;;;;;5032306;28;19913;-70
2023/08/28 08:14:57;;;;;;;;;;;;;;;;;;5035069;28;19959;-70
2023/08/28 08:17:23;;;;;;;;;;;;;;;;;;5041459;28;19945;-70
2023/08/28 08:19:48;;;;;;;;;;;;;;;;;;5033333;28;19963;-70
2023/08/28 08:22:14;;;;;;;;;;;;;;;;;;5012007;28;19956;-69
2023/08/28 08:24:40;;;;;;;;;;;;;;;;;;5038313;28;20386;-69
2023/08/28 08:27:06;;;;;;;;;;;;;;;;;;5026565;28;19944;-70
2023/08/28 08:29:32;;;;;;;;;;;;;;;;;;5036474;28;20422;-70
2023/08/28 08:31:58;;;;;;;;;;;;;;;;;;5036698;28;19916;-70
2023/08/28 08:34:24;;;;;;;;;;;;;;;;;;5036475;28;20424;-69
2023/08/28 08:36:50;;;;;;;;;;;;;;;;;;5039535;28;19966;-70
2023/08/28 08:39:16;;;;;;;;;;;;;;;;;;5038032;28;19908;-69
2023/08/28 08:41:42;;;;;;;;;;;;;;;;;;5039555;28;19916;-69
2023/08/28 08:44:08;;;;;;;;;;;;;;;;;;5041194;28;19912;-70
2023/08/28 08:46:34;;;;;;;;;;;;;;;;;;5042068;28;19913;-70
2023/08/28 08:49:00;;;;;;;;;;;;;;;;;;5044332;28;19911;-69
2023/08/28 08:51:26;;;;;;;;;;;;;;;;;;5042531;28;20003;-69
2023/08/28 08:53:52;;;;;;;;;;;;;;;;;;5040952;28;19958;-69
2023/08/28 08:56:18;;;;;;;;;;;;;;;;;;5041002;28;19909;-70
2023/08/28 08:58:44;;;;;;;;;;;;;;;;;;5032288;28;19913;-69
2023/08/28 09:01:12;;;;;;;;;;;;;;;;;;5040228;28;19905;-70
2023/08/28 09:03:42;;;;;;;;;;;;;;;;;;5064469;22;20175;-73
2023/08/28 09:06:08;;;;;;;;;;;;;;;;;;5022794;28;19918;-72
2023/08/28 09:08:34;;;;;;;;;;;;;;;;;;5039954;28;19920;-71
2023/08/28 09:11:00;;;;;;;;;;;;;;;;;;5042859;28;19944;-71
2023/08/28 09:13:26;;;;;;;;;;;;;;;;;;5042506;28;19904;-70
2023/08/28 09:15:52;;;;;;;;;;;;;;;;;;5020321;28;19906;-71
2023/08/28 09:18:19;;;;;;;;;;;;;;;;;;5019902;28;19924;-72
2023/08/28 09:20:45;;;;;;;;;;;;;;;;;;5022837;28;19905;-71
2023/08/28 09:23:11;;;;;;;;;;;;;;;;;;5018843;28;20379;-75
2023/08/28 09:25:37;;;;;;;;;;;;;;;;;;5016267;28;19909;-74
2023/08/28 09:28:03;;;;;;;;;;;;;;;;;;5019663;28;19932;-72
2023/08/28 09:30:29;;;;;;;;;;;;;;;;;;5016425;28;19913;-75
2023/08/28 09:32:55;;;;;;;;;;;;;;;;;;5017804;28;19909;-74
2023/08/28 09:35:21;;;;;;;;;;;;;;;;;;5023062;28;19970;-72
2023/08/28 09:37:47;;;;;;;;;;;;;;;;;;5015722;28;19921;-75
2023/08/28 09:40:12;;;;;;;;;;;;;;;;;;5009660;28;20324;-72
2023/08/28 09:42:38;;;;;;;;;;;;;;;;;;5015658;28;20436;-70
2023/08/28 09:45:05;;;;;;;;;;;;;;;;;;5018378;28;20028;-71
2023/08/28 09:47:31;;;;;;;;;;;;;;;;;;5017071;28;19951;-71
2023/08/28 09:49:56;;;;;;;;;;;;;;;;;;5014624;28;20055;-71
2023/08/28 09:52:22;;;;;;;;;;;;;;;;;;5016417;28;19955;-71
2023/08/28 09:54:51;;;;;;;;;;;;;;;;;;5019235;28;19917;-71
2023/08/28 09:57:17;;;;;;;;;;;;;;;;;;5019962;28;20381;-70
2023/08/28 09:59:43;;;;;;;;;;;;;;;;;;5015713;28;19912;-71
2023/08/28 10:02:09;;;;;;;;;;;;;;;;;;5017108;28;19912;-71
2023/08/28 10:04:35;;;;;;;;;;;;;;;;;;5016688;28;19917;-70
2023/08/28 10:07:01;;;;;;;;;;;;;;;;;;5018833;28;19975;-70
2023/08/28 10:09:27;;;;;;;;;;;;;;;;;;5015253;28;19917;-69
2023/08/28 10:11:53;;;;;;;;;;;;;;;;;;5016459;28;19912;-70
2023/08/28 10:14:19;;;;;;;;;;;;;;;;;;5014758;28;19917;-69
2023/08/28 10:16:45;;;;;;;;;;;;;;;;;;5013958;28;19916;-70
2023/08/28 10:19:11;;;;;;;;;;;;;;;;;;5013404;28;19910;-71
2023/08/28 10:21:37;;;;;;;;;;;;;;;;;;5012171;28;20297;-71
2023/08/28 10:24:03;;;;;;;;;;;;;;;;;;5015697;28;20004;-71
2023/08/28 10:26:29;;;;;;;;;;;;;;;;;;5006680;28;19912;-69
2023/08/28 10:28:55;;;;;;;;;;;;;;;;;;5011775;28;19905;-70
2023/08/28 10:31:20;;;;;;;;;;;;;;;;;;5018568;28;19905;-71
2023/08/28 10:33:46;;;;;;;;;;;;;;;;;;5016309;28;20292;-70
2023/08/28 10:36:12;;;;;;;;;;;;;;;;;;5023113;28;19913;-72
2023/08/28 10:38:38;;;;;;;;;;;;;;;;;;5004158;28;19953;-71
2023/08/28 10:41:04;;;;;;;;;;;;;;;;;;5014918;28;20381;-70
2023/08/28 10:43:30;;;;;;;;;;;;;;;;;;5020552;28;20008;-70
2023/08/28 10:45:56;;;;;;;;;;;;;;;;;;5017268;28;19947;-70
2023/08/28 10:48:22;;;;;;;;;;;;;;;;;;5010665;28;19909;-68
2023/08/28 10:50:48;;;;;;;;;;;;;;;;;;5019804;28;19906;-70
2023/08/28 10:53:14;;;;;;;;;;;;;;;;;;5020052;28;20274;-71
2023/08/28 10:55:40;;;;;;;;;;;;;;;;;;5015489;28;20039;-71
2023/08/28 10:58:06;;;;;;;;;;;;;;;;;;5011680;28;20369;-70
2023/08/28 11:00:31;;;;;;;;;;;;;;;;;;5011942;28;19912;-70
2023/08/28 11:02:57;;;;;;;;;;;;;;;;;;5013310;28;19988;-71
2023/08/28 11:05:23;;;;;;;;;;;;;;;;;;5014029;28;19919;-70
2023/08/28 11:07:53;;;;;;;;;;;;;;;;;;5014628;28;20373;-70
2023/08/28 11:10:20;;;;;;;;;;;;;;;;;;5009171;28;19913;-70
2023/08/28 11:12:45;;;;;;;;;;;;;;;;;;5011462;28;19909;-71
2023/08/28 11:15:12;;;;;;;;;;;;;;;;;;5010079;28;19918;-69
2023/08/28 11:17:37;;;;;;;;;;;;;;;;;;5012085;28;19924;-69
2023/08/28 11:20:04;;;;;;;;;;;;;;;;;;5014312;28;19909;-70
2023/08/28 11:22:30;;;;;;;;;;;;;;;;;;5016436;28;19948;-72
2023/08/28 11:24:56;;;;;;;;;;;;;;;;;;5002526;28;20484;-70
2023/08/28 11:27:22;;;;;;;;;;;;;;;;;;5009012;28;19909;-70
2023/08/28 11:29:48;;;;;;;;;;;;;;;;;;5012143;28;19959;-71
2023/08/28 11:32:14;;;;;;;;;;;;;;;;;;5027925;28;19940;-71
2023/08/28 11:34:40;;;;;;;;;;;;;;;;;;5026520;28;19905;-71
2023/08/28 11:37:06;;;;;;;;;;;;;;;;;;5012152;28;19940;-70
2023/08/28 11:39:32;;;;;;;;;;;;;;;;;;5012121;28;19963;-71
2023/08/28 11:41:58;;;;;;;;;;;;;;;;;;5010738;28;19944;-69
2023/08/28 11:44:26;;;;;;;;;;;;;;;;;;5012482;28;19905;-70
2023/08/28 11:46:52;;;;;;;;;;;;;;;;;;5012013;28;19909;-69
2023/08/28 11:49:18;;;;;;;;;;;;;;;;;;5011935;28;19905;-70
2023/08/28 11:51:44;;;;;;;;;;;;;;;;;;5011918;28;19968;-70
2023/08/28 11:54:10;;;;;;;;;;;;;;;;;;5011825;28;19913;-70
2023/08/28 11:56:38;;;;;;;;;;;;;;;;;;5011941;28;19959;-70
2023/08/28 11:59:04;;;;;;;;;;;;;;;;;;5011484;28;19905;-70
2023/08/28 12:01:30;;;;;;;;;;;;;;;;;;5011880;28;19909;-69
2023/08/28 12:03:55;;;;;;;;;;;;;;;;;;5011891;28;20269;-69
2023/08/28 12:06:21;;;;;;;;;;;;;;;;;;5012573;28;20063;-70
2023/08/28 12:08:47;;;;;;;;;;;;;;;;;;5011317;28;19908;-70
2023/08/28 12:11:13;;;;;;;;;;;;;;;;;;5012042;28;19909;-69
2023/08/28 12:13:39;;;;;;;;;;;;;;;;;;5010691;28;19906;-70
2023/08/28 12:16:05;;;;;;;;;;;;;;;;;;5012240;28;19936;-70
2023/08/28 12:18:31;;;;;;;;;;;;;;;;;;5011856;28;20388;-70
2023/08/28 12:20:57;;;;;;;;;;;;;;;;;;5012824;28;19906;-69
2023/08/28 12:23:23;;;;;;;;;;;;;;;;;;5011388;28;20385;-69
2023/08/28 12:25:49;;;;;;;;;;;;;;;;;;5013215;28;19909;-70
2023/08/28 12:28:15;;;;;;;;;;;;;;;;;;5011303;28;19912;-70
2023/08/28 12:30:40;;;;;;;;;;;;;;;;;;5011659;28;20427;-67
2023/08/28 12:33:07;;;;;;;;;;;;;;;;;;5010124;28;19910;-69
2023/08/28 12:35:33;;;;;;;;;;;;;;;;;;5008116;28;19914;-71
2023/08/28 12:37:58;;;;;;;;;;;;;;;;;;5006555;28;19909;-69
2023/08/28 12:40:24;;;;;;;;;;;;;;;;;;5007614;28;19913;-69
2023/08/28 12:42:50;;;;;;;;;;;;;;;;;;5011054;28;20021;-69
2023/08/28 12:45:16;;;;;;;;;;;;;;;;;;5011314;28;19959;-70
2023/08/28 12:47:44;;;;;;;;;;;;;;;;;;5010702;28;19929;-70
2023/08/28 12:50:10;;;;;;;;;;;;;;;;;;5011190;28;20021;-69
2023/08/28 12:52:36;;;;;;;;;;;;;;;;;;5010217;28;19912;-70
2023/08/28 12:55:02;;;;;;;;;;;;;;;;;;5011212;28;19910;-70
2023/08/28 12:57:28;;;;;;;;;;;;;;;;;;5010623;28;20400;-71
2023/08/28 12:59:54;;;;;;;;;;;;;;;;;;5010908;28;19992;-71
2023/08/28 13:02:20;;;;;;;;;;;;;;;;;;5010833;28;19905;-70
2023/08/28 13:04:46;;;;;;;;;;;;;;;;;;5009497;28;20661;-70
2023/08/28 13:07:14;;;;;;;;;;;;;;;;;;5010435;28;19910;-70
2023/08/28 13:09:40;;;;;;;;;;;;;;;;;;5010636;28;20004;-71
2023/08/28 13:12:09;;;;;;;;;;;;;;;;;;5010990;28;19912;-71
2023/08/28 13:14:35;;;;;;;;;;;;;;;;;;5010620;28;19913;-70
2023/08/28 13:17:01;;;;;;;;;;;;;;;;;;5010536;28;19971;-69
2023/08/28 13:19:27;;;;;;;;;;;;;;;;;;5010118;28;20301;-70
2023/08/28 13:21:54;;;;;;;;;;;;;;;;;;5010644;28;19905;-70
2023/08/28 13:24:20;;;;;;;;;;;;;;;;;;5010976;28;19959;-71
2023/08/28 13:26:46;;;;;;;;;;;;;;;;;;5009251;28;19910;-71
2023/08/28 13:29:12;;;;;;;;;;;;;;;;;;5013119;28;19960;-68
2023/08/28 13:31:38;;;;;;;;;;;;;;;;;;5014024;28;19905;-70
2023/08/28 13:34:03;;;;;;;;;;;;;;;;;;5014344;28;19905;-69
2023/08/28 13:36:29;;;;;;;;;;;;;;;;;;5012444;28;19975;-69
2023/08/28 13:38:56;;;;;;;;;;;;;;;;;;5013891;28;19917;-70
2023/08/28 13:41:21;;;;;;;;;;;;;;;;;;5013956;28;19909;-70
2023/08/28 13:43:47;;;;;;;;;;;;;;;;;;5014214;28;19912;-70
2023/08/28 13:46:13;;;;;;;;;;;;;;;;;;5013875;28;19912;-70
2023/08/28 13:48:39;;;;;;;;;;;;;;;;;;5013193;28;19905;-69
2023/08/28 13:51:07;;;;;;;;;;;;;;;;;;5013677;28;20336;-69
2023/08/28 13:53:32;;;;;;;;;;;;;;;;;;5013914;28;19917;-68
2023/08/28 13:55:58;;;;;;;;;;;;;;;;;;5013537;28;19913;-70
2023/08/28 13:58:30;;;;;;;;;;;;;;;;;;5013085;28;19905;-70
2023/08/28 14:00:57;;;;;;;;;;;;;;;;;;5013688;28;19906;-71
2023/08/28 14:03:23;;;;;;;;;;;;;;;;;;5013192;28;19909;-70
2023/08/28 14:05:52;;;;;;;;;;;;;;;;;;5013330;28;20393;-70
2023/08/28 14:08:21;;;;;;;;;;;;;;;;;;5012610;28;20412;-69
2023/08/28 14:10:47;;;;;;;;;;;;;;;;;;5013698;28;19905;-70
2023/08/28 14:13:13;;;;;;;;;;;;;;;;;;5014808;28;20289;-69
2023/08/28 14:15:39;;;;;;;;;;;;;;;;;;5012481;28;20380;-69
2023/08/28 14:18:05;;;;;;;;;;;;;;;;;;5011966;28;20265;-68
2023/08/28 14:20:31;;;;;;;;;;;;;;;;;;5015984;28;19917;-68
2023/08/28 14:23:04;;;;;;;;;;;;;;;;;;5013443;28;19917;-71
2023/08/28 14:25:30;;;;;;;;;;;;;;;;;;5014019;28;19913;-71
2023/08/28 14:27:57;;;;;;;;;;;;;;;;;;5015206;28;19905;-70
2023/08/28 14:30:23;;;;;;;;;;;;;;;;;;5010986;28;19972;-69
2023/08/28 14:32:49;;;;;;;;;;;;;;;;;;5010541;28;19905;-68
2023/08/28 14:35:17;;;;;;;;;;;;;;;;;;5010263;28;19941;-72
2023/08/28 14:37:43;;;;;;;;;;;;;;;;;;5009334;28;20344;-69
2023/08/28 14:40:09;;;;;;;;;;;;;;;;;;5009913;28;19909;-69
2023/08/28 14:42:35;;;;;;;;;;;;;;;;;;5010223;28;20080;-69
2023/08/28 14:45:03;;;;;;;;;;;;;;;;;;5010019;28;20684;-69
2023/08/28 14:47:29;;;;;;;;;;;;;;;;;;5009635;28;19988;-70
2023/08/28 14:49:55;;;;;;;;;;;;;;;;;;5010319;28;20321;-70
2023/08/28 14:52:21;;;;;;;;;;;;;;;;;;5009871;28;19909;-70
2023/08/28 14:54:47;;;;;;;;;;;;;;;;;;5015014;28;20145;-69
2023/08/28 14:57:13;;;;;;;;;;;;;;;;;;5026259;28;19967;-70
2023/08/28 14:59:39;;;;;;;;;;;;;;;;;;5030911;28;19913;-70
2023/08/28 15:02:05;;;;;;;;;;;;;;;;;;5032281;28;20008;-69
2023/08/28 15:04:31;;;;;;;;;;;;;;;;;;5056513;22;19944;-69
2023/08/28 15:06:57;;;;;;;;;;;;;;;;;;5030861;28;19963;-70
2023/08/28 15:09:23;;;;;;;;;;;;;;;;;;5032139;28;19912;-70
2023/08/28 15:11:49;;;;;;;;;;;;;;;;;;5031625;28;20384;-69
2023/08/28 15:14:15;;;;;;;;;;;;;;;;;;5031971;28;19911;-69
2023/08/28 15:16:41;;;;;;;;;;;;;;;;;;5012056;28;20384;-69
2023/08/28 15:19:07;;;;;;;;;;;;;;;;;;5011819;28;19906;-69
2023/08/28 15:21:33;;;;;;;;;;;;;;;;;;5008335;28;20467;-69
2023/08/28 15:23:58;;;;;;;;;;;;;;;;;;5012183;28;20056;-68
2023/08/28 15:26:24;;;;;;;;;;;;;;;;;;5011543;28;19912;-69
2023/08/28 15:28:50;;;;;;;;;;;;;;;;;;5015760;28;19928;-68
2023/08/28 15:31:16;;;;;;;;;;;;;;;;;;5015164;28;19908;-68
2023/08/28 15:33:42;;;;;;;;;;;;;;;;;;5012099;28;19991;-69
2023/08/28 15:36:08;;;;;;;;;;;;;;;;;;4995523;28;19912;-69
2023/08/28 15:38:34;;;;;;;;;;;;;;;;;;5011254;28;19912;-69
2023/08/28 15:41:00;;;;;;;;;;;;;;;;;;5011456;28;20369;-69
2023/08/28 15:43:26;;;;;;;;;;;;;;;;;;5011711;28;19960;-68
2023/08/28 15:45:52;;;;;;;;;;;;;;;;;;5018169;28;19905;-68
2023/08/28 15:48:18;;;;;;;;;;;;;;;;;;5010583;28;19911;-68
2023/08/28 15:50:44;;;;;;;;;;;;;;;;;;5010993;28;20357;-69
2023/08/28 15:53:10;;;;;;;;;;;;;;;;;;5011265;28;20268;-69
2023/08/28 15:55:36;;;;;;;;;;;;;;;;;;5011304;28;19914;-69
2023/08/28 15:58:02;;;;;;;;;;;;;;;;;;5010994;28;19916;-69
2023/08/28 16:00:29;;;;;;;;;;;;;;;;;;5011991;28;19910;-68
2023/08/28 16:02:55;;;;;;;;;;;;;;;;;;5016353;28;19916;-68
2023/08/28 16:05:21;;;;;;;;;;;;;;;;;;5007650;28;19913;-68
2023/08/28 16:07:47;;;;;;;;;;;;;;;;;;5009587;28;19910;-69
2023/08/28 16:10:13;;;;;;;;;;;;;;;;;;5007865;28;20353;-69
2023/08/28 16:12:38;;;;;;;;;;;;;;;;;;5010398;28;19905;-70
2023/08/28 16:15:05;;;;;;;;;;;;;;;;;;5009974;28;19909;-69
2023/08/28 16:17:30;;;;;;;;;;;;;;;;;;5010262;28;19979;-69
2023/08/28 16:19:56;;;;;;;;;;;;;;;;;;4992530;28;19913;-68
2023/08/28 16:22:22;;;;;;;;;;;;;;;;;;5011076;28;20015;-68
2023/08/28 16:24:51;;;;;;;;;;;;;;;;;;5003832;28;19911;-69
2023/08/28 16:27:17;;;;;;;;;;;;;;;;;;5001299;28;19912;-70
2023/08/28 16:29:43;;;;;;;;;;;;;;;;;;5004364;28;20293;-70
2023/08/28 16:32:09;;;;;;;;;;;;;;;;;;5007793;28;19933;-69
2023/08/28 16:34:35;;;;;;;;;;;;;;;;;;5004681;28;19916;-69
2023/08/28 16:37:01;;;;;;;;;;;;;;;;;;4988208;28;20011;-69